createdAt,value
2023-05-14T00:00:02.411Z,9.7321
2023-05-14T00:01:03.244Z,9.7286
2023-05-14T00:02:05.028Z,9.6952
2023-05-14T00:03:07.499Z,9.7650
2023-05-14T00:04:08.659Z,9.7668
2023-05-14T00:06:10.658Z,9.6717
2023-05-14T00:08:12.153Z,9.6157
2023-05-14T00:09:13.733Z,9.6221
2023-05-14T00:17:19.972Z,9.4773
2023-05-14T00:21:54.917Z,9.3103
2023-05-14T00:22:55.103Z,9.2440
2023-05-14T00:30:01.042Z,9.2258
2023-05-14T00:31:01.992Z,9.1294
2023-05-14T00:32:03.672Z,9.1969
2023-05-14T00:34:06.357Z,9.1186
2023-05-14T00:35:07.775Z,9.2072
2023-05-14T00:36:09.098Z,9.1323
2023-05-14T00:37:09.899Z,9.1084
2023-05-14T00:38:11.381Z,9.1808
2023-05-14T00:40:11.376Z,9.3049
2023-05-14T00:41:13.591Z,9.3069
2023-05-14T00:43:15.074Z,9.1657
2023-05-14T00:44:15.799Z,9.1336
2023-05-14T00:45:16.494Z,9.1162
2023-05-14T00:51:21.735Z,9.1042
2023-05-14T00:52:24.303Z,9.0380
2023-05-14T00:55:28.486Z,9.2250
2023-05-14T00:56:28.601Z,9.1395
2023-05-14T00:57:30.234Z,9.0975
2023-05-14T00:58:31.432Z,9.1001
2023-05-14T00:59:32.698Z,9.1316
2023-05-14T01:00:33.327Z,9.1849
2023-05-14T01:01:33.732Z,9.1875
2023-05-14T01:02:34.530Z,9.1860
2023-05-14T01:03:35.483Z,9.1627
2023-05-14T01:04:35.887Z,9.1732
2023-05-14T01:05:36.163Z,9.1672
2023-05-14T01:06:36.413Z,9.2015
2023-05-14T01:07:38.957Z,9.2057
2023-05-14T01:08:41.084Z,9.1930
2023-05-14T01:09:41.843Z,9.1954
2023-05-14T01:10:42.118Z,9.2387
2023-05-14T01:11:42.798Z,9.2606
2023-05-14T01:12:43.089Z,9.2224
2023-05-14T01:13:43.408Z,9.2406
2023-05-14T01:14:44.639Z,9.2023
2023-05-14T01:15:45.263Z,9.1642
2023-05-14T01:16:47.235Z,9.2019
2023-05-14T01:17:47.415Z,9.2038
2023-05-14T01:18:48.893Z,9.2099
2023-05-14T01:19:49.094Z,9.2823
2023-05-14T01:20:51.037Z,9.2929
2023-05-14T01:21:52.606Z,9.2906
2023-05-14T01:22:54.792Z,9.2611
2023-05-14T01:23:56.314Z,9.2720
2023-05-14T01:24:57.779Z,9.2655
2023-05-14T01:25:59.179Z,9.2428
2023-05-14T01:27:00.476Z,9.2290
2023-05-14T01:28:02.381Z,9.2014
2023-05-14T01:29:02.423Z,9.1901
2023-05-14T01:30:03.665Z,9.1781
2023-05-14T01:31:05.614Z,9.1598
2023-05-14T01:32:06.936Z,9.1405
2023-05-14T01:33:07.276Z,9.1555
2023-05-14T01:34:07.782Z,9.1973
2023-05-14T01:35:09.511Z,9.2493
2023-05-14T01:36:10.066Z,9.2365
2023-05-14T01:37:10.994Z,9.2420
2023-05-14T01:38:11.319Z,9.2212
2023-05-14T01:46:17.037Z,9.1451
2023-05-14T01:49:20.423Z,9.1716
2023-05-14T01:50:20.681Z,9.1643
2023-05-14T01:51:22.097Z,9.1162
2023-05-14T01:52:23.230Z,9.1035
2023-05-14T01:53:24.477Z,9.1306
2023-05-14T01:54:24.967Z,9.1250
2023-05-14T01:55:26.402Z,9.1289
2023-05-14T01:56:28.422Z,9.1045
2023-05-14T01:57:28.668Z,9.0873
2023-05-14T01:58:30.063Z,9.1030
2023-05-14T01:59:30.365Z,9.1004
2023-05-14T02:00:31.708Z,9.0914
2023-05-14T02:01:34.389Z,9.0342
2023-05-14T02:02:35.182Z,9.0211
2023-05-14T02:03:35.257Z,9.0357
2023-05-14T02:04:36.300Z,9.0306
2023-05-14T02:09:40.558Z,9.0021
2023-05-14T02:10:41.110Z,8.9974
2023-05-14T02:12:42.207Z,9.0154
2023-05-14T02:14:42.673Z,9.0271
2023-05-14T02:15:44.247Z,9.0147
2023-05-14T02:16:45.100Z,9.0131
2023-05-14T02:17:45.214Z,8.9956
2023-05-14T02:18:47.499Z,8.9891
2023-05-14T02:20:49.313Z,8.9577
2023-05-14T02:31:01.296Z,8.9591
2023-05-14T02:32:01.410Z,8.8838
2023-05-14T02:34:03.886Z,8.9169
2023-05-14T02:37:07.403Z,8.8757
2023-05-14T02:38:07.507Z,8.8211
2023-05-14T02:39:07.417Z,8.7527
2023-05-14T02:40:09.253Z,8.8164
2023-05-14T02:41:10.298Z,8.8025
2023-05-14T02:42:11.870Z,8.7263
2023-05-14T02:43:13.471Z,8.7315
2023-05-14T02:44:14.127Z,8.6746
2023-05-14T02:45:16.305Z,8.6638
2023-05-14T02:46:18.759Z,8.6698
2023-05-14T02:47:19.759Z,8.6382
2023-05-14T02:48:20.328Z,8.5732
2023-05-14T02:49:20.615Z,8.5414
2023-05-14T02:50:23.529Z,8.5627
2023-05-14T02:51:25.245Z,8.5342
2023-05-14T02:52:26.077Z,8.5382
2023-05-14T02:53:26.932Z,8.5324
2023-05-14T02:54:28.149Z,8.5668
2023-05-14T02:55:30.068Z,8.5966
2023-05-14T02:56:32.107Z,8.5811
2023-05-14T02:57:32.601Z,8.5534
2023-05-14T02:58:34.783Z,8.5673
2023-05-14T02:59:34.845Z,8.5824
2023-05-14T03:00:36.554Z,8.5895
2023-05-14T03:02:38.931Z,8.5906
2023-05-14T03:03:39.226Z,8.5747
2023-05-14T03:04:39.960Z,8.5896
2023-05-14T03:05:41.266Z,8.5958
2023-05-14T03:06:42.369Z,8.5872
2023-05-14T03:10:46.904Z,8.6204
2023-05-14T03:12:49.038Z,8.6093
2023-05-14T03:13:49.932Z,8.6214
2023-05-14T03:14:51.523Z,8.6425
2023-05-14T03:16:53.689Z,8.6244
2023-05-14T03:17:55.508Z,8.6065
2023-05-14T03:18:55.940Z,8.5841
2023-05-14T03:19:56.146Z,8.5676
2023-05-14T03:20:57.325Z,8.5658
2023-05-14T03:21:59.522Z,8.5747
2023-05-14T03:23:00.148Z,8.5237
2023-05-14T03:24:00.475Z,8.5553
2023-05-14T03:25:03.335Z,8.5173
2023-05-14T03:26:04.443Z,8.5202
2023-05-14T03:27:04.473Z,8.4508
2023-05-14T03:28:05.504Z,8.3968
2023-05-14T03:29:07.186Z,8.3619
2023-05-14T03:30:07.301Z,8.2810
2023-05-14T03:31:09.036Z,8.2937
2023-05-14T03:32:10.798Z,8.1893
2023-05-14T03:33:12.533Z,8.1220
2023-05-14T03:34:14.226Z,8.1361
2023-05-14T03:35:16.029Z,8.1148
2023-05-14T03:36:16.336Z,8.1561
2023-05-14T03:37:18.338Z,8.0828
2023-05-14T03:38:18.584Z,7.9848
2023-05-14T03:39:21.223Z,7.9857
2023-05-14T03:40:22.475Z,7.9539
2023-05-14T03:41:23.152Z,7.9792
2023-05-14T03:42:24.300Z,7.9822
2023-05-14T03:43:25.427Z,8.0830
2023-05-14T03:52:34.006Z,8.0077
2023-05-14T03:55:34.972Z,8.0020
2023-05-14T03:56:36.812Z,8.0438
2023-05-14T03:57:37.884Z,8.1014
2023-05-14T03:58:39.986Z,8.0984
2023-05-14T03:59:41.737Z,8.1297
2023-05-14T04:00:42.069Z,8.1707
2023-05-14T04:01:43.372Z,8.1820
2023-05-14T04:02:44.689Z,8.2059
2023-05-14T04:07:49.965Z,8.2785
2023-05-14T04:08:50.939Z,8.3125
2023-05-14T04:10:52.164Z,8.3572
2023-05-14T04:11:52.300Z,8.3992
2023-05-14T04:12:53.539Z,8.4413
2023-05-14T04:13:55.636Z,8.5016
2023-05-14T04:14:56.312Z,8.5513
2023-05-14T04:16:59.529Z,8.5416
2023-05-14T04:23:02.219Z,8.7855
2023-05-14T04:24:04.467Z,8.8269
2023-05-14T04:26:05.667Z,8.8508
2023-05-14T04:27:07.276Z,8.8357
2023-05-14T04:28:09.804Z,8.8542
2023-05-14T04:29:10.102Z,8.8937
2023-05-14T04:30:12.380Z,8.9051
2023-05-14T04:33:14.826Z,9.0295
2023-05-14T04:34:17.173Z,9.0275
2023-05-14T04:36:18.056Z,9.0744
2023-05-14T04:37:19.663Z,9.0447
2023-05-14T04:38:19.815Z,9.0842
2023-05-14T04:41:21.194Z,9.1182
2023-05-14T04:42:23.569Z,9.1423
2023-05-14T04:43:24.518Z,9.1601
2023-05-14T04:45:26.632Z,9.2025
2023-05-14T04:46:28.923Z,9.2206
2023-05-14T04:48:29.136Z,9.3216
2023-05-14T04:49:31.045Z,9.3113
2023-05-14T04:50:31.352Z,9.3520
2023-05-14T04:51:33.649Z,9.4067
2023-05-14T04:58:39.361Z,9.7439
2023-05-14T05:01:42.259Z,9.8399
2023-05-14T05:02:42.882Z,9.8950
2023-05-14T05:03:43.146Z,9.9221
2023-05-14T05:04:45.508Z,9.8614
2023-05-14T05:05:47.840Z,9.8721
2023-05-14T05:06:48.521Z,9.9881
2023-05-14T05:07:49.319Z,9.8629
2023-05-14T05:08:49.375Z,9.7467
2023-05-14T05:09:50.025Z,9.8514
2023-05-14T05:10:50.146Z,9.9200
2023-05-14T05:11:51.542Z,9.8921
2023-05-14T05:12:53.719Z,9.8981
2023-05-14T05:13:54.371Z,9.9966
2023-05-14T05:14:55.626Z,10.0150
2023-05-14T05:17:58.550Z,9.9447
2023-05-14T05:32:17.817Z,10.2584
2023-05-14T05:33:18.900Z,10.3327
2023-05-14T05:34:20.743Z,10.2625
2023-05-14T05:35:23.083Z,10.4525
2023-05-14T05:36:23.464Z,10.4742
2023-05-14T05:37:23.535Z,10.8278
2023-05-14T05:38:25.241Z,10.7222
2023-05-14T05:39:26.447Z,10.5792
2023-05-14T05:40:27.518Z,10.6039
2023-05-14T05:41:28.038Z,10.5773
2023-05-14T05:42:30.720Z,10.6374
2023-05-14T05:43:31.772Z,10.5426
2023-05-14T05:44:33.521Z,10.4856
2023-05-14T05:45:34.164Z,10.5308
2023-05-14T05:46:35.839Z,10.5324
2023-05-14T05:47:37.891Z,10.5781
2023-05-14T05:48:40.071Z,10.5956
2023-05-14T05:49:40.844Z,10.7890
2023-05-14T05:50:41.205Z,10.9624
2023-05-14T05:51:41.333Z,11.0160
2023-05-14T05:52:41.736Z,10.9345
2023-05-14T05:53:43.968Z,10.7909
2023-05-14T05:54:45.009Z,11.1285
2023-05-14T05:55:46.479Z,11.3333
2023-05-14T05:56:47.633Z,11.3588
2023-05-14T05:57:49.201Z,11.4560
2023-05-14T05:58:49.824Z,11.3246
2023-05-14T05:59:50.105Z,11.3374
2023-05-14T06:00:51.690Z,11.1727
2023-05-14T06:01:52.960Z,11.3555
2023-05-14T06:02:53.951Z,11.2937
2023-05-14T06:03:55.230Z,11.0829
2023-05-14T06:04:57.104Z,11.0768
2023-05-14T06:05:58.283Z,11.1797
2023-05-14T06:07:00.014Z,11.2853
2023-05-14T06:08:01.132Z,10.9356
2023-05-14T06:11:46.957Z,10.5855
2023-05-14T06:12:48.959Z,10.6996
2023-05-14T06:13:50.530Z,10.6178
2023-05-14T06:14:50.999Z,10.4550
2023-05-14T06:15:51.799Z,10.5323
2023-05-14T06:16:54.343Z,10.6436
2023-05-14T06:17:55.328Z,10.6449
2023-05-14T06:18:55.961Z,10.6761
2023-05-14T06:19:57.719Z,10.5328
2023-05-14T06:20:58.767Z,10.3801
2023-05-14T06:21:59.089Z,10.4739
2023-05-14T06:23:01.909Z,10.4326
2023-05-14T06:24:02.208Z,10.3965
2023-05-14T06:25:02.590Z,10.4040
2023-05-14T06:26:03.296Z,10.4553
2023-05-14T06:27:05.283Z,10.5252
2023-05-14T06:28:06.758Z,10.5060
2023-05-14T06:29:08.644Z,10.4101
2023-05-14T06:30:09.410Z,10.4321
2023-05-14T06:31:10.417Z,10.4258
2023-05-14T06:32:11.122Z,10.3224
2023-05-14T06:33:13.234Z,10.5872
2023-05-14T06:34:14.057Z,10.6901
2023-05-14T06:35:16.693Z,10.7764
2023-05-14T06:36:17.522Z,10.6355
2023-05-14T06:37:17.965Z,10.7498
2023-05-14T06:38:19.164Z,10.9217
2023-05-14T06:39:20.804Z,11.0202
2023-05-14T06:40:22.036Z,10.7843
2023-05-14T06:41:23.719Z,10.7835
2023-05-14T06:42:26.134Z,10.8248
2023-05-14T06:45:01.741Z,10.8604
2023-05-14T06:48:02.632Z,10.7263
2023-05-14T06:49:03.444Z,10.8844
2023-05-14T06:50:05.108Z,10.8722
2023-05-14T06:53:37.918Z,11.0532
2023-05-14T06:55:39.812Z,11.1556
2023-05-14T06:56:39.801Z,10.8800
2023-05-14T06:57:41.624Z,10.9292
2023-05-14T06:58:42.809Z,10.9567
2023-05-14T06:59:43.407Z,10.8648
2023-05-14T07:00:45.293Z,11.1929
2023-05-14T07:01:46.457Z,11.2815
2023-05-14T07:03:11.410Z,11.4379
2023-05-14T07:05:19.629Z,11.4251
2023-05-14T07:06:20.732Z,11.1615
2023-05-14T07:07:22.322Z,11.2055
2023-05-14T07:11:25.707Z,11.0409
2023-05-14T07:12:28.508Z,11.0829
2023-05-14T07:13:30.253Z,10.7904
2023-05-14T07:14:30.582Z,10.8162
2023-05-14T07:15:32.105Z,10.5207
2023-05-14T07:16:33.541Z,10.6984
2023-05-14T07:24:40.472Z,11.1508
2023-05-14T07:25:41.052Z,11.2347
2023-05-14T07:26:41.908Z,11.1917
2023-05-14T07:27:42.662Z,11.3038
2023-05-14T07:28:44.439Z,11.3737
2023-05-14T07:29:44.502Z,11.5522
2023-05-14T07:30:46.011Z,11.8470
2023-05-14T07:31:46.657Z,11.7826
2023-05-14T07:32:48.253Z,11.5067
2023-05-14T07:33:50.505Z,12.0830
2023-05-14T07:38:31.678Z,11.9938
2023-05-14T07:39:33.080Z,12.1369
2023-05-14T07:42:07.618Z,11.6465
2023-05-14T07:48:56.695Z,12.9202
2023-05-14T07:49:57.829Z,13.9775
2023-05-14T07:54:00.893Z,15.6471
2023-05-14T07:55:01.830Z,15.9649
2023-05-14T07:56:47.658Z,15.0619
2023-05-14T12:18:24.631Z,12.4408
2023-05-14T12:21:22.477Z,12.2405
2023-05-14T12:28:10.772Z,12.2414
2023-05-14T12:31:13.343Z,12.1721
2023-05-14T12:32:13.528Z,12.2184
2023-05-14T12:44:11.470Z,12.0209
2023-05-14T12:46:13.556Z,12.0062
2023-05-14T12:47:14.069Z,12.3729
2023-05-14T12:48:14.944Z,12.3440
2023-05-14T12:51:50.147Z,12.5507
2023-05-14T12:52:49.042Z,12.3948
2023-05-14T12:53:49.195Z,12.5140
2023-05-14T12:58:55.301Z,12.7673
2023-05-14T13:00:26.432Z,12.8997
2023-05-14T13:03:28.244Z,12.8083
2023-05-14T13:09:34.018Z,13.1611
2023-05-14T13:12:37.492Z,13.5712
2023-05-14T13:27:22.703Z,13.9047
2023-05-14T13:28:24.634Z,14.1332
2023-05-14T13:29:25.604Z,14.0874
2023-05-14T13:32:27.286Z,14.5294
2023-05-14T13:33:27.566Z,14.2689
2023-05-14T13:34:28.062Z,14.4445
2023-05-14T13:35:30.378Z,14.8419
2023-05-14T13:36:30.747Z,14.7418
2023-05-14T13:37:31.003Z,14.7153
2023-05-14T13:42:45.156Z,14.8286
2023-05-14T13:47:17.377Z,14.7750
2023-05-14T13:57:29.770Z,15.6524
2023-05-14T14:05:38.136Z,16.5780
2023-05-14T14:45:35.343Z,14.2653
2023-05-14T14:53:09.225Z,12.8849
2023-05-14T14:54:10.040Z,12.5009
2023-05-14T15:10:26.315Z,11.1711
2023-05-14T15:11:27.631Z,11.2266
2023-05-14T15:12:27.966Z,11.2122
2023-05-14T15:13:29.904Z,11.3371
2023-05-14T15:14:30.858Z,11.3529
2023-05-14T15:15:30.945Z,11.3049
2023-05-14T15:16:32.628Z,11.2299
2023-05-14T15:17:32.614Z,11.1490
2023-05-14T15:18:34.304Z,11.1522
2023-05-14T15:23:11.632Z,11.2793
2023-05-14T15:24:13.900Z,11.2763
2023-05-14T15:25:16.745Z,11.1247
2023-05-14T15:26:17.333Z,11.0106
2023-05-14T15:27:19.784Z,10.9914
2023-05-14T15:28:20.460Z,11.0060
2023-05-14T15:29:20.561Z,11.0611
2023-05-14T15:30:21.742Z,10.9937
2023-05-14T15:31:22.967Z,11.1401
2023-05-14T15:32:23.650Z,11.0636
2023-05-14T15:33:33.675Z,10.8555
2023-05-14T15:41:04.083Z,11.0712
2023-05-14T15:42:04.741Z,10.8310
2023-05-14T15:50:10.279Z,11.0029
2023-05-14T15:51:12.499Z,11.0041
2023-05-14T15:52:14.154Z,11.0769
2023-05-14T15:53:16.388Z,11.1321
2023-05-14T15:54:16.857Z,11.0893
2023-05-14T15:55:18.621Z,11.2563
2023-05-14T15:56:18.422Z,11.2890
2023-05-14T15:57:20.091Z,11.3397
2023-05-14T15:58:19.200Z,11.5008
2023-05-14T16:00:23.538Z,11.8710
2023-05-14T16:32:58.299Z,10.5038
2023-05-14T16:34:02.132Z,10.4804
2023-05-14T16:47:01.092Z,10.4516
2023-05-14T16:56:11.604Z,10.2332
2023-05-14T16:59:12.205Z,10.1894
2023-05-14T17:00:14.388Z,10.1345
2023-05-14T17:01:16.050Z,10.0947
2023-05-14T17:02:18.260Z,10.0732
2023-05-14T17:03:20.437Z,10.1150
2023-05-14T17:04:21.537Z,10.1597
2023-05-14T17:05:22.575Z,10.1793
2023-05-14T17:06:22.642Z,10.2040
2023-05-14T17:08:26.733Z,10.2562
2023-05-14T17:09:26.771Z,10.2888
2023-05-14T17:10:28.447Z,10.2937
2023-05-14T17:11:29.485Z,10.2820
2023-05-14T17:12:29.773Z,10.2864
2023-05-14T17:13:31.853Z,10.2823
2023-05-14T17:14:33.592Z,10.2589
2023-05-14T17:15:35.203Z,10.2560
2023-05-14T17:16:37.137Z,10.2568
2023-05-14T17:17:37.188Z,10.2468
2023-05-14T17:18:37.564Z,10.1743
2023-05-14T17:19:39.297Z,10.1989
2023-05-14T17:20:39.966Z,10.2129
2023-05-14T17:21:42.011Z,10.1823
2023-05-14T17:22:43.748Z,10.2327
2023-05-14T17:23:45.664Z,10.2453
2023-05-14T17:24:47.546Z,10.2691
2023-05-14T17:25:49.295Z,10.2406
2023-05-14T17:26:51.114Z,10.1815
2023-05-14T17:27:51.306Z,10.1852
2023-05-14T17:28:53.378Z,10.2176
2023-05-14T17:29:53.944Z,10.2038
2023-05-14T17:30:54.352Z,10.2584
2023-05-14T17:31:56.574Z,10.2801
2023-05-14T17:32:57.398Z,10.3076
2023-05-14T17:33:58.020Z,10.3063
2023-05-14T17:34:59.008Z,10.3176
2023-05-14T17:35:59.669Z,10.3777
2023-05-14T17:37:00.172Z,10.4086
2023-05-14T17:38:00.717Z,10.3775
2023-05-14T17:39:01.927Z,10.3714
2023-05-14T17:40:02.427Z,10.3518
2023-05-14T17:42:03.469Z,10.1015
2023-05-14T17:43:03.766Z,10.0605
2023-05-14T17:44:05.120Z,10.0082
2023-05-14T17:45:06.341Z,10.0207
2023-05-14T17:46:07.620Z,10.0787
2023-05-14T17:47:09.151Z,10.1215
2023-05-14T17:48:09.401Z,10.1350
2023-05-14T17:49:10.725Z,10.1437
2023-05-14T17:50:11.271Z,10.1661
2023-05-14T17:51:12.095Z,10.2000
2023-05-14T17:56:15.046Z,10.3300
2023-05-14T17:57:15.804Z,10.2986
2023-05-14T17:58:17.397Z,10.2381
2023-05-14T18:00:21.923Z,10.2113
2023-05-14T18:06:27.715Z,10.2043
2023-05-14T18:07:30.382Z,10.1664
2023-05-14T18:08:30.464Z,10.1569
2023-05-14T18:09:31.080Z,10.1537
2023-05-14T18:10:33.761Z,10.1136
2023-05-14T18:11:35.028Z,10.1604
2023-05-14T18:12:36.948Z,10.1689
2023-05-14T18:13:38.623Z,10.2332
2023-05-14T18:14:40.408Z,10.2617
2023-05-14T18:15:42.112Z,10.3133
2023-05-14T18:16:43.241Z,10.1606
2023-05-14T18:17:43.423Z,10.2947
2023-05-14T18:18:44.588Z,10.3011
2023-05-14T18:19:44.836Z,10.1796
2023-05-14T18:20:46.748Z,10.2187
2023-05-14T18:21:48.446Z,10.1560
2023-05-14T18:22:49.585Z,10.1961
2023-05-14T18:23:51.486Z,10.1431
2023-05-14T18:24:52.945Z,10.1529
2023-05-14T18:25:53.099Z,10.1724
2023-05-14T18:26:53.243Z,10.0817
2023-05-14T18:27:56.087Z,10.0070
2023-05-14T18:28:57.261Z,9.8968
2023-05-14T18:30:57.146Z,9.9295
2023-05-14T18:36:03.035Z,9.9279
2023-05-14T18:37:05.129Z,9.9254
2023-05-14T18:38:06.480Z,9.9778
2023-05-14T18:39:07.738Z,9.9710
2023-05-14T18:40:10.035Z,9.9668
2023-05-14T18:41:11.736Z,9.9517
2023-05-14T18:42:13.499Z,9.9071
2023-05-14T18:43:15.688Z,9.9044
2023-05-14T18:44:16.192Z,9.8806
2023-05-14T18:45:19.318Z,9.8354
2023-05-14T18:46:20.685Z,9.7672
2023-05-14T18:47:20.761Z,9.7692
2023-05-14T18:48:22.671Z,9.7167
2023-05-14T18:49:24.054Z,9.7042
2023-05-14T18:55:30.407Z,9.6939
2023-05-14T19:01:38.406Z,9.6401
2023-05-14T19:02:39.302Z,9.6409
2023-05-14T19:05:42.442Z,9.6219
2023-05-14T19:06:44.513Z,9.6294
2023-05-14T19:07:44.926Z,9.6130
2023-05-14T19:08:47.080Z,9.6055
2023-05-14T19:09:47.466Z,9.6093
2023-05-14T19:10:47.597Z,9.6464
2023-05-14T19:12:51.992Z,9.7163
2023-05-14T19:13:52.073Z,9.7159
2023-05-14T19:14:53.892Z,9.7092
2023-05-14T19:16:58.228Z,9.7179
2023-05-14T19:17:59.051Z,9.7385
2023-05-14T19:20:01.263Z,9.7639
2023-05-14T19:21:02.097Z,9.7841
2023-05-14T19:22:03.669Z,9.8160
2023-05-14T19:23:03.894Z,9.8379
2023-05-14T19:24:06.586Z,9.8360
2023-05-14T19:25:08.447Z,9.8372
2023-05-14T19:27:10.124Z,9.8147
2023-05-14T19:28:11.095Z,9.8566
2023-05-14T19:29:13.120Z,9.8653
2023-05-14T19:30:14.828Z,9.8777
2023-05-14T19:31:16.594Z,9.8876
2023-05-14T19:32:17.873Z,9.8920
2023-05-14T19:33:17.886Z,9.8681
2023-05-14T19:43:29.006Z,9.6339
2023-05-14T19:44:29.220Z,9.6872
2023-05-14T19:47:30.893Z,9.6841
2023-05-14T19:52:36.890Z,9.8242
2023-05-14T19:53:38.450Z,9.9046
2023-05-14T19:55:38.881Z,9.9326
2023-05-14T19:57:42.434Z,9.9020
2023-05-14T19:58:44.255Z,9.8882
2023-05-14T19:59:46.055Z,9.8643
2023-05-14T20:00:48.211Z,9.8758
2023-05-14T20:01:50.723Z,9.8753
2023-05-14T20:03:52.034Z,9.9369
2023-05-14T20:04:53.839Z,9.9317
2023-05-14T20:05:55.492Z,9.9380
2023-05-14T20:06:57.237Z,9.8288
2023-05-14T20:07:57.755Z,9.7925
2023-05-14T20:08:58.599Z,9.8033
2023-05-14T20:09:59.817Z,9.8524
2023-05-14T20:11:00.964Z,9.8884
2023-05-14T20:12:02.720Z,9.9119
2023-05-14T20:13:04.546Z,9.9045
2023-05-14T20:14:07.263Z,9.8568
2023-05-14T20:15:08.669Z,9.8300
2023-05-14T20:16:09.199Z,9.8159
2023-05-14T20:17:09.780Z,9.8130
2023-05-14T20:18:10.283Z,9.8039
2023-05-14T20:19:12.190Z,9.8253
2023-05-14T20:20:13.010Z,9.8488
2023-05-14T20:21:14.011Z,9.8416
2023-05-14T20:22:15.034Z,9.8294
2023-05-14T20:23:17.478Z,9.8202
2023-05-14T20:28:23.120Z,9.8474
2023-05-14T20:29:25.581Z,9.8831
2023-05-14T20:30:26.375Z,9.8980
2023-05-14T20:31:26.688Z,9.8964
2023-05-14T20:32:27.752Z,9.8876
2023-05-14T20:34:28.765Z,9.8768
2023-05-14T20:35:30.141Z,9.8604
2023-05-14T20:36:30.122Z,9.8507
2023-05-14T20:37:32.097Z,9.8385
2023-05-14T20:38:33.423Z,9.8159
2023-05-14T20:39:34.648Z,9.8352
2023-05-14T20:40:35.864Z,9.8223
2023-05-14T20:41:36.378Z,9.8223
2023-05-14T20:42:37.885Z,9.8275
2023-05-14T20:53:58.219Z,9.7981
2023-05-14T20:55:01.851Z,9.8145
2023-05-14T20:56:00.976Z,9.8479
2023-05-14T20:57:01.183Z,9.8544
2023-05-14T20:58:03.234Z,9.8148
2023-05-14T20:59:03.854Z,9.7758
2023-05-14T21:00:03.919Z,9.7457
2023-05-14T21:01:07.171Z,9.7530
2023-05-14T21:03:07.338Z,9.7622
2023-05-14T21:04:08.060Z,9.7752
2023-05-14T21:05:09.023Z,9.7745
2023-05-14T21:06:10.996Z,9.7735
2023-05-14T21:07:11.574Z,9.7785
2023-05-14T21:09:13.934Z,9.7884
2023-05-14T21:10:15.277Z,9.7815
2023-05-14T21:11:16.314Z,9.7766
2023-05-14T21:12:16.498Z,9.8044
2023-05-14T21:13:16.941Z,9.8135
2023-05-14T21:14:18.653Z,9.8065
2023-05-14T21:15:20.872Z,9.7873
2023-05-14T21:16:23.044Z,9.7958
2023-05-14T21:17:24.444Z,9.7791
2023-05-14T21:18:25.305Z,9.7503
2023-05-14T21:19:25.624Z,9.7504
2023-05-14T21:20:28.326Z,9.7409
2023-05-14T21:23:30.234Z,9.7340
2023-05-14T21:24:31.181Z,9.7490
2023-05-14T21:25:32.803Z,9.7514
2023-05-14T21:26:34.057Z,9.7484
2023-05-14T21:27:35.858Z,9.7661
2023-05-14T21:29:38.685Z,9.7471
2023-05-14T21:30:41.678Z,9.7179
2023-05-14T21:31:41.955Z,9.7163
2023-05-14T21:32:44.725Z,9.6688
2023-05-14T21:33:44.991Z,9.6787
2023-05-14T21:34:45.285Z,9.6772
2023-05-14T21:35:48.416Z,9.6669
2023-05-14T21:38:50.989Z,9.6143
2023-05-14T21:39:51.284Z,9.6063
2023-05-14T21:40:52.510Z,9.5935
2023-05-14T21:46:59.490Z,9.5498
2023-05-14T21:47:59.898Z,9.5561
2023-05-14T21:49:59.780Z,9.5912
2023-05-14T21:51:02.074Z,9.5526
2023-05-14T21:52:03.488Z,9.5048
2023-05-14T21:53:05.449Z,9.4622
2023-05-14T21:54:05.498Z,9.3899
2023-05-14T21:55:06.075Z,9.4167
2023-05-14T21:57:07.568Z,9.3689
2023-05-14T21:58:08.509Z,9.3925
2023-05-14T21:59:08.522Z,9.3834
2023-05-14T22:00:09.552Z,9.3500
2023-05-14T22:01:11.092Z,9.3532
2023-05-14T22:02:12.138Z,9.3589
2023-05-14T22:03:13.007Z,9.5452
2023-05-14T22:04:13.886Z,9.6209
2023-05-14T22:06:15.196Z,9.4438
2023-05-14T22:07:15.599Z,9.4097
2023-05-14T22:08:18.383Z,9.3662
2023-05-14T22:09:19.938Z,9.3711
2023-05-14T22:10:21.681Z,9.3561
2023-05-14T22:12:22.080Z,9.3598
2023-05-14T22:13:24.115Z,9.3387
2023-05-14T22:14:24.795Z,9.3360
2023-05-14T22:16:27.057Z,9.2961
2023-05-14T22:17:27.332Z,9.2999
2023-05-14T22:18:28.119Z,9.2545
2023-05-14T22:21:33.494Z,9.3005
2023-05-14T22:22:33.937Z,9.2779
2023-05-14T22:23:35.276Z,9.2692
2023-05-14T22:24:36.149Z,9.3761
2023-05-14T22:25:37.273Z,9.3302
2023-05-14T22:26:38.127Z,9.2953
2023-05-14T22:27:40.317Z,9.3202
2023-05-14T22:28:41.004Z,9.3555
2023-05-14T22:29:41.790Z,9.3267
2023-05-14T22:30:42.895Z,9.3365
2023-05-14T22:31:44.743Z,9.3248
2023-05-14T22:32:46.789Z,9.3713
2023-05-14T22:33:47.083Z,9.3691
2023-05-14T22:34:48.186Z,9.3451
2023-05-14T22:35:49.485Z,9.3267
2023-05-14T22:36:50.047Z,9.3299
2023-05-14T22:37:50.913Z,9.3529
2023-05-14T22:38:52.568Z,9.3780
2023-05-14T22:50:10.551Z,9.4432
2023-05-14T22:51:12.074Z,9.4165
2023-05-14T22:52:12.542Z,9.4319
2023-05-14T22:53:13.796Z,9.4863
2023-05-14T22:54:16.335Z,9.5072
2023-05-14T22:56:17.311Z,9.4944
2023-05-14T22:57:17.998Z,9.5311
2023-05-14T22:58:19.389Z,9.6136
2023-05-14T23:00:24.224Z,9.6870
2023-05-14T23:01:24.977Z,9.7094
2023-05-14T23:02:25.474Z,9.6695
2023-05-14T23:03:26.965Z,9.7087
2023-05-14T23:04:28.191Z,9.8015
2023-05-14T23:06:30.206Z,9.7100
2023-05-14T23:07:30.828Z,9.7246
2023-05-14T23:08:31.800Z,9.6912
2023-05-14T23:09:33.117Z,9.6475
2023-05-14T23:10:33.976Z,9.6195
2023-05-14T23:11:36.128Z,9.5799
2023-05-14T23:12:38.115Z,9.5777
2023-05-14T23:13:40.830Z,9.5616
2023-05-14T23:14:42.375Z,9.5575
2023-05-14T23:15:44.514Z,9.5840
2023-05-14T23:16:44.707Z,9.5878
2023-05-14T23:17:45.603Z,9.5692
2023-05-14T23:18:45.861Z,9.5916
2023-05-14T23:19:47.100Z,9.5711
2023-05-14T23:20:48.135Z,9.6200
2023-05-14T23:21:49.437Z,9.6562
2023-05-14T23:22:50.855Z,9.6611
2023-05-14T23:23:52.715Z,9.6506
2023-05-14T23:25:52.764Z,9.6784
2023-05-14T23:26:55.629Z,9.6528
2023-05-14T23:27:57.008Z,9.6254
2023-05-14T23:28:57.577Z,9.5919
2023-05-14T23:31:01.142Z,9.6065
2023-05-14T23:32:02.685Z,9.6031
2023-05-14T23:34:03.404Z,9.6094
2023-05-14T23:37:05.714Z,9.6113
2023-05-14T23:50:07.380Z,9.4768
2023-05-14T23:53:12.591Z,9.4694
2023-05-14T23:54:14.666Z,9.4580
2023-05-14T23:55:15.867Z,9.4502
2023-05-14T23:56:18.078Z,9.4502
2023-05-14T23:57:18.364Z,9.4349
2023-05-14T23:58:18.391Z,9.4382
2023-05-14T23:59:19.107Z,9.4489
